Terminal Aerodrome Forecast
Issued by NWS Tuscon, AZ

Home | Current Version | Previous Version | Text Only | Print | Product List | Glossary On
Versions: 1 2 3 4 5 6 7 8 9 10 11 12 13 14 15
000
FTUS45 KTWC 282334
TAFDUG
TAF
KDUG 282334Z 2900/2924 19008KT P6SM SCT100 BKN200
     FM290400 14006KT P6SM BKN200
     FM291100 VRB04KT P6SM SCT200
     FM291700 17006KT P6SM SCT060 SCT110
     FM292100 19010KT P6SM VCTS SCT050CB BKN100=

USA.gov is the U.S. government's official web portal to all federal, state and local government web resources and services.